Time;durP1;ratioP1;P1;durP2;ratioP2;P2;SDS_P1;SDS_P2;PMS_P1;PMS_P2;Temp;Humidity;BMP_temperature;BMP_pressure;BME280_temperature;BME280_humidity;BME280_pressure;Samples;Min_cycle;Max_cycle;Signal;HPM_P1;HPM_P2
2022/02/03 00:04:41;;;;;;;31.45;16.20;;;3.10;76.30;;;;;;5074961;28;20055;-57
2022/02/03 00:07:13;;;;;;;32.35;23.52;;;3.10;76.00;;;;;;5071922;28;20027;-57
2022/02/03 00:25:29;;;;;;;29.45;14.77;;;3.00;76.50;;;;;;5076603;28;20023;-58
2022/02/03 00:33:27;;;;;;;28.02;12.95;;;3.00;76.60;;;;;;5084174;28;20054;-58
2022/02/03 00:49:12;;;;;;;26.08;12.85;;;2.90;76.70;;;;;;5078439;28;20170;-58
2022/02/03 00:51:46;;;;;;;28.55;21.40;;;2.90;76.80;;;;;;5079752;28;20027;-57
2022/02/03 00:54:12;;;;;;;30.98;15.35;;;3.00;76.80;;;;;;5075226;28;20039;-58
2022/02/03 00:56:47;;;;;;;30.80;23.65;;;2.90;76.50;;;;;;5077645;28;20028;-58
2022/02/03 00:59:35;;;;;;;30.42;15.38;;;3.00;76.70;;;;;;5073765;28;20097;-58
2022/02/03 01:02:11;;;;;;;31.50;14.35;;;2.90;76.60;;;;;;5083285;28;20020;-57
2022/02/03 01:04:39;;;;;;;36.05;23.38;;;2.90;77.00;;;;;;5077775;28;20380;-58
2022/02/03 01:07:13;;;;;;;30.52;15.82;;;3.00;77.20;;;;;;5081985;28;20012;-57
2022/02/03 01:09:48;;;;;;;36.30;23.00;;;2.90;76.70;;;;;;5072762;28;20028;-58
2022/02/03 01:12:46;;;;;;;32.50;14.70;;;3.00;76.90;;;;;;5068655;28;20037;-58
2022/02/03 01:45:07;;;;;;;26.20;12.82;;;3.10;77.80;;;;;;4997510;28;20081;-57
2022/02/03 01:48:06;;;;;;;25.67;14.43;;;3.10;77.40;;;;;;5001247;28;20101;-57
2022/02/03 01:52:52;;;;;;;31.08;15.45;;;3.10;77.90;;;;;;5072109;28;20124;-58
2022/02/03 01:55:27;;;;;;;27.35;13.23;;;3.10;77.70;;;;;;5066513;28;20028;-57
2022/02/03 01:58:04;;;;;;;31.25;20.13;;;3.10;77.80;;;;;;5072801;28;20029;-58
2022/02/03 02:00:38;;;;;;;30.95;13.77;;;3.20;77.80;;;;;;5066735;28;20024;-58
2022/02/03 02:03:15;;;;;;;28.65;13.18;;;3.10;77.50;;;;;;5083005;28;20017;-57
2022/02/03 02:06:32;;;;;;;34.78;22.67;;;3.10;77.60;;;;;;5059393;28;20133;-58
2022/02/03 02:09:19;;;;;;;25.13;12.27;;;3.20;77.80;;;;;;5045447;28;20033;-57
2022/02/03 02:12:15;;;;;;;34.67;22.55;;;3.10;77.40;;;;;;5072493;28;20032;-57
2022/02/03 02:39:48;;;;;;;28.48;11.82;;;3.20;77.20;;;;;;5069336;28;20521;-57
2022/02/03 02:42:34;;;;;;;17.77;11.23;;;3.20;77.20;;;;;;5078045;28;20403;-58
2022/02/03 02:45:06;;;;;;;17.20;9.65;;;3.10;77.20;;;;;;5079231;28;20055;-58
2022/02/03 02:48:06;;;;;;;18.02;9.45;;;3.20;77.30;;;;;;5084499;28;20047;-60
2022/02/03 02:50:49;;;;;;;27.20;12.32;;;3.20;77.30;;;;;;5078048;28;20484;-58
2022/02/03 02:53:36;;;;;;;29.83;13.20;;;3.20;77.40;;;;;;5075037;28;20038;-58
2022/02/03 03:37:28;;;;;;;21.17;14.95;;;3.10;76.80;;;;;;5085593;28;20077;-58
2022/02/03 03:40:01;;;;;;;19.42;9.80;;;3.10;77.00;;;;;;5080149;28;20044;-58
2022/02/03 03:42:35;;;;;;;18.48;9.02;;;3.10;77.00;;;;;;5080015;28;20055;-57
2022/02/03 03:45:06;;;;;;;23.55;17.33;;;3.00;77.20;;;;;;5085502;28;20503;-58
2022/02/03 03:47:38;;;;;;;21.13;9.80;;;3.00;77.80;;;;;;5077845;28;20021;-57
2022/02/03 03:50:15;;;;;;;21.05;10.98;;;3.00;77.80;;;;;;5075186;28;20473;-57
2022/02/03 03:52:57;;;;;;;24.02;16.73;;;3.00;77.80;;;;;;5072376;28;20042;-58
2022/02/03 04:31:20;;;;;;;24.60;11.13;;;3.30;78.20;;;;;;5069638;28;20043;-57
2022/02/03 04:57:43;;;;;;;35.30;25.23;;;3.50;77.30;;;;;;5066935;28;20050;-57
2022/02/03 05:11:41;;;;;;;32.67;16.13;;;3.60;77.10;;;;;;5076436;28;20125;-57
2022/02/03 05:23:43;;;;;;;29.48;13.00;;;3.60;76.80;;;;;;5072282;28;20032;-58
2022/02/03 05:26:53;;;;;;;31.42;22.55;;;3.60;76.80;;;;;;5076271;28;20029;-57
2022/02/03 05:44:29;;;;;;;25.10;13.55;;;3.60;76.70;;;;;;5067239;28;20546;-58
2022/02/03 05:52:35;;;;;;;28.65;19.38;;;3.70;76.70;;;;;;5079984;28;20028;-57
2022/02/03 06:13:30;;;;;;;26.02;18.75;;;3.50;76.40;;;;;;5060170;28;20028;-59
2022/02/03 06:21:31;;;;;;;28.15;12.98;;;3.50;76.60;;;;;;5069827;28;20081;-57
2022/02/03 06:29:17;;;;;;;27.58;19.35;;;3.30;76.80;;;;;;5063127;28;20403;-57
2022/02/03 06:31:45;;;;;;;29.05;21.20;;;3.30;77.30;;;;;;5057761;28;20025;-57
2022/02/03 06:34:12;;;;;;;26.70;21.33;;;3.30;77.20;;;;;;5056950;28;20411;-57
2022/02/03 06:36:39;;;;;;;24.15;11.65;;;3.40;77.30;;;;;;5061945;28;20496;-57
2022/02/03 06:39:18;;;;;;;24.52;11.25;;;3.30;77.10;;;;;;5068989;28;20021;-56
2022/02/03 06:41:45;;;;;;;23.15;12.18;;;3.30;77.20;;;;;;5062797;28;20040;-57
2022/02/03 06:44:13;;;;;;;19.27;10.95;;;3.30;77.20;;;;;;5053562;28;20040;-60
2022/02/03 06:46:42;;;;;;;25.55;18.95;;;3.30;77.40;;;;;;5065398;28;20036;-57
2022/02/03 06:49:18;;;;;;;22.20;11.10;;;3.30;77.60;;;;;;5061928;28;20509;-56
2022/02/03 06:51:52;;;;;;;25.80;18.65;;;3.30;77.40;;;;;;5056689;28;20754;-58
2022/02/03 06:54:28;;;;;;;22.90;18.30;;;3.30;77.60;;;;;;5068930;28;20036;-57
2022/02/03 06:56:59;;;;;;;25.80;14.73;;;3.40;77.60;;;;;;5057434;28;20119;-57
2022/02/03 06:59:36;;;;;;;23.00;12.45;;;3.40;77.50;;;;;;5058552;28;20496;-57
2022/02/03 07:02:03;;;;;;;28.15;19.58;;;3.30;77.70;;;;;;5053328;28;20466;-61
2022/02/03 07:04:37;;;;;;;25.83;12.95;;;3.40;78.00;;;;;;5058869;28;20029;-57
2022/02/03 07:07:03;;;;;;;24.90;14.23;;;3.40;77.80;;;;;;5060099;28;20021;-56
2022/02/03 07:09:30;;;;;;;26.00;14.10;;;3.30;77.90;;;;;;5065288;28;20039;-57
2022/02/03 07:11:55;;;;;;;30.23;21.55;;;3.30;78.20;;;;;;5070643;28;20034;-57
2022/02/03 07:14:23;;;;;;;26.73;14.70;;;3.40;78.40;;;;;;5066301;28;20447;-57
2022/02/03 07:16:51;;;;;;;25.48;14.43;;;3.40;78.20;;;;;;5070151;28;20114;-56
2022/02/03 07:19:17;;;;;;;30.77;22.40;;;3.50;78.20;;;;;;5065460;28;20527;-58
2022/02/03 07:21:42;;;;;;;23.88;14.13;;;3.60;78.20;;;;;;5062716;28;20025;-57
2022/02/03 07:24:09;;;;;;;26.17;21.02;;;3.60;78.00;;;;;;5062083;28;20033;-57
2022/02/03 07:26:35;;;;;;;33.00;24.73;;;3.70;77.90;;;;;;5060498;28;20016;-58
2022/02/03 07:29:01;;;;;;;29.00;13.48;;;3.80;77.50;;;;;;5059733;28;20339;-57
2022/02/03 07:31:27;;;;;;;26.80;14.82;;;3.80;77.30;;;;;;5065395;28;20024;-60
2022/02/03 07:33:57;;;;;;;28.20;13.40;;;3.80;77.40;;;;;;5052945;28;20101;-58
2022/02/03 07:36:22;;;;;;;28.33;22.38;;;3.90;77.40;;;;;;5053962;28;20038;-58
2022/02/03 07:38:48;;;;;;;31.98;23.45;;;4.00;77.20;;;;;;5054361;28;20383;-58
2022/02/03 07:41:13;;;;;;;31.23;24.27;;;4.00;76.90;;;;;;5053657;28;20025;-59
2022/02/03 07:43:39;;;;;;;24.63;14.73;;;4.10;76.60;;;;;;5052688;28;20029;-57
2022/02/03 07:46:05;;;;;;;29.88;23.40;;;4.00;76.50;;;;;;5052856;28;20039;-57
2022/02/03 07:48:30;;;;;;;33.30;25.52;;;4.00;76.80;;;;;;5061516;28;20392;-59
2022/02/03 07:50:56;;;;;;;31.80;17.65;;;4.10;76.70;;;;;;5060815;28;20089;-59
2022/02/03 07:53:22;;;;;;;32.28;17.20;;;4.10;76.80;;;;;;5059660;28;20029;-57
2022/02/03 07:55:47;;;;;;;34.75;26.42;;;4.00;76.90;;;;;;5036111;28;20024;-57
2022/02/03 07:58:13;;;;;;;30.40;16.92;;;4.20;77.00;;;;;;5049917;28;20107;-58
2022/02/03 08:00:39;;;;;;;28.92;16.90;;;4.20;76.60;;;;;;5046541;28;20035;-58
2022/02/03 08:03:11;;;;;;;32.00;24.52;;;4.20;76.80;;;;;;5036734;28;20483;-59
2022/02/03 08:05:38;;;;;;;31.63;24.90;;;4.30;76.80;;;;;;5047664;28;20374;-58
2022/02/03 08:08:27;;;;;;;25.70;15.93;;;4.40;76.40;;;;;;5052265;28;20217;-59
2022/02/03 08:10:57;;;;;;;23.17;13.30;;;4.40;76.10;;;;;;5054371;28;20028;-58
2022/02/03 08:13:34;;;;;;;29.77;23.10;;;4.40;76.10;;;;;;5053421;28;20113;-58
2022/02/03 08:16:06;;;;;;;31.85;24.98;;;4.50;76.00;;;;;;5036962;28;20082;-58
2022/02/03 08:18:33;;;;;;;23.90;15.52;;;4.50;75.80;;;;;;5049133;28;20093;-59
2022/02/03 08:21:03;;;;;;;30.40;24.40;;;4.50;75.70;;;;;;5047093;28;20075;-59
2022/02/03 08:26:25;;;;;;;;;;;4.50;75.80;;;;;;5051349;28;20024;-60
2022/02/03 08:29:11;;;;;;;22.40;12.98;;;4.50;75.80;;;;;;5055955;28;19916;-60
2022/02/03 08:31:49;;;;;;;24.40;14.75;;;4.50;76.30;;;;;;5054497;28;20025;-60
2022/02/03 08:34:21;;;;;;;26.48;19.60;;;4.50;76.30;;;;;;5054056;28;20456;-60
2022/02/03 08:36:47;;;;;;;28.42;21.50;;;4.60;76.20;;;;;;5051843;28;20120;-60
2022/02/03 08:39:18;;;;;;;25.77;13.93;;;4.70;75.80;;;;;;5058793;28;20119;-59
2022/02/03 08:41:44;;;;;;;23.30;14.00;;;4.60;75.60;;;;;;5056360;28;20040;-59
2022/02/03 08:44:09;;;;;;;27.58;18.50;;;4.70;76.40;;;;;;5053218;28;20791;-60
2022/02/03 08:46:35;;;;;;;29.73;21.90;;;4.70;75.70;;;;;;5054524;28;20086;-60
2022/02/03 08:49:05;;;;;;;22.88;13.30;;;4.80;75.50;;;;;;5052150;28;20029;-58
2022/02/03 08:51:31;;;;;;;26.75;18.20;;;4.70;75.40;;;;;;5054460;28;20515;-59
2022/02/03 08:54:04;;;;;;;26.80;21.77;;;4.80;75.70;;;;;;5045589;28;21431;-59
2022/02/03 09:34:44;;;;;;;30.30;16.48;;;5.30;74.90;;;;;;5054497;28;20044;-60
2022/02/03 09:58:29;;;;;;;28.77;14.77;;;5.50;75.10;;;;;;5051315;28;20029;-59
2022/02/03 10:03:36;;;;;;;28.88;17.88;;;5.50;75.10;;;;;;5047552;28;20032;-58
2022/02/03 10:06:11;;;;;;;31.65;19.38;;;5.50;75.10;;;;;;5044312;28;20550;-59
2022/02/03 10:08:37;;;;;;;30.25;17.05;;;5.50;75.20;;;;;;5046896;28;20024;-60
2022/02/03 10:11:27;;;;;;;32.30;18.45;;;5.50;75.30;;;;;;5044186;28;20391;-59
2022/02/03 10:13:57;;;;;;;35.85;17.50;;;5.50;75.20;;;;;;5044113;28;20073;-58
2022/02/03 10:16:32;;;;;;;26.55;17.42;;;5.40;75.30;;;;;;5052133;28;20090;-60
2022/02/03 10:19:18;;;;;;;34.60;20.20;;;5.50;75.40;;;;;;5055262;28;20060;-60
2022/02/03 10:21:47;;;;;;;29.00;18.02;;;5.50;75.50;;;;;;5047873;28;20039;-58
2022/02/03 10:24:16;;;;;;;29.48;18.33;;;5.50;75.50;;;;;;5049118;28;20156;-60
2022/02/03 10:26:52;;;;;;;28.98;17.27;;;5.60;75.40;;;;;;5049073;28;20039;-58
2022/02/03 10:29:35;;;;;;;31.70;22.00;;;5.60;75.40;;;;;;5047474;28;20020;-59
2022/02/03 10:32:00;;;;;;;37.47;20.70;;;5.70;75.30;;;;;;5042428;28;20110;-59
2022/02/03 10:34:32;;;;;;;31.92;18.83;;;5.80;75.30;;;;;;5055283;28;21035;-59
2022/02/03 10:37:23;;;;;;;32.45;19.70;;;5.80;75.20;;;;;;5049044;28;20036;-59
2022/02/03 10:40:29;;;;;;;34.80;17.58;;;5.90;75.20;;;;;;5049876;28;20055;-60
2022/02/03 10:45:55;;;;;;;32.03;21.63;;;6.00;75.10;;;;;;5047890;28;20044;-60
2022/02/03 10:58:40;;;;;;;36.30;26.35;;;6.10;75.50;;;;;;5051760;28;20055;-60
2022/02/03 11:04:11;;;;;;;31.75;19.27;;;6.20;75.00;;;;;;5049329;28;20048;-59
2022/02/03 11:07:04;;;;;;;24.90;18.65;;;6.30;75.00;;;;;;5048333;28;20044;-59
2022/02/03 11:09:38;;;;;;;29.52;19.10;;;6.40;74.90;;;;;;5050099;28;20079;-58
2022/02/03 11:12:09;;;;;;;28.52;17.05;;;6.40;74.60;;;;;;5045777;28;20116;-59
2022/02/03 11:14:38;;;;;;;25.43;16.93;;;6.50;74.70;;;;;;5055805;28;20037;-59
2022/02/03 11:17:04;;;;;;;25.83;17.35;;;6.50;74.50;;;;;;5048178;28;20183;-59
2022/02/03 11:19:33;;;;;;;29.33;18.17;;;6.50;74.60;;;;;;5046806;28;20478;-59
2022/02/03 11:22:09;;;;;;;24.52;16.73;;;6.50;74.60;;;;;;5042645;28;20036;-59
2022/02/03 11:24:41;;;;;;;25.50;19.17;;;6.50;74.60;;;;;;5045836;28;20083;-58
2022/02/03 11:27:30;;;;;;;32.30;21.42;;;6.50;74.50;;;;;;5037878;28;20116;-59
2022/02/03 11:42:08;;;;;;;19.23;13.57;;;6.60;74.30;;;;;;5047990;28;20085;-60
2022/02/03 11:59:21;;;;;;;16.65;10.63;;;6.50;73.70;;;;;;5011066;28;20078;-60
2022/02/03 12:02:05;;;;;;;14.50;10.30;;;6.50;73.60;;;;;;5041753;28;20039;-61
2022/02/03 12:10:28;;;;;;;14.80;10.40;;;6.50;73.90;;;;;;5027013;28;20032;-60
2022/02/03 12:24:22;;;;;;;13.95;9.98;;;6.40;73.90;;;;;;5048585;28;23156;-60
2022/02/03 12:29:42;;;;;;;17.90;10.27;;;6.40;74.10;;;;;;5038211;28;20060;-60
2022/02/03 12:36:56;;;;;;;17.83;12.20;;;6.40;74.10;;;;;;5046804;28;20746;-61
2022/02/03 12:43:02;;;;;;;16.95;13.95;;;6.20;73.50;;;;;;5036897;28;20056;-61
2022/02/03 12:45:28;;;;;;;14.70;10.68;;;6.20;74.30;;;;;;5039298;28;20142;-61
2022/02/03 12:47:59;;;;;;;15.15;11.10;;;6.10;74.20;;;;;;5046080;28;20038;-61
2022/02/03 12:50:36;;;;;;;17.27;10.20;;;6.10;74.60;;;;;;5044968;28;20038;-60
2022/02/03 12:53:03;;;;;;;16.48;11.18;;;6.00;74.60;;;;;;5044342;28;20044;-60
2022/02/03 12:55:38;;;;;;;14.57;9.93;;;5.90;74.80;;;;;;5041048;28;20033;-59
2022/02/03 12:58:12;;;;;;;17.02;12.93;;;5.90;74.80;;;;;;5034337;28;20087;-60
2022/02/03 13:00:55;;;;;;;16.40;12.07;;;5.90;75.00;;;;;;5037287;28;20039;-60
2022/02/03 13:03:39;;;;;;;17.35;12.18;;;5.90;75.80;;;;;;5034393;28;20047;-59
2022/02/03 13:06:11;;;;;;;14.93;11.02;;;5.80;75.20;;;;;;5040616;28;20029;-60
2022/02/03 13:08:44;;;;;;;15.23;9.60;;;5.80;75.30;;;;;;5024457;28;20130;-60
2022/02/03 13:14:01;;;;;;;14.10;9.75;;;5.70;75.50;;;;;;5042085;28;20086;-60
2022/02/03 13:16:27;;;;;;;16.95;9.73;;;5.80;75.60;;;;;;5042709;28;20028;-59
2022/02/03 13:19:02;;;;;;;17.60;12.18;;;5.70;75.80;;;;;;5046350;28;20055;-60
2022/02/03 13:21:41;;;;;;;18.58;11.85;;;5.70;75.90;;;;;;5041628;28;20093;-59
2022/02/03 13:26:46;;;;;;;23.35;13.77;;;5.60;76.10;;;;;;5035733;28;20039;-60
2022/02/03 13:29:24;;;;;;;25.08;14.38;;;5.70;76.90;;;;;;5048363;28;20028;-60
2022/02/03 13:31:55;;;;;;;22.85;13.63;;;5.70;76.40;;;;;;5041368;28;20082;-59
2022/02/03 13:34:44;;;;;;;22.13;15.05;;;5.70;76.40;;;;;;5040302;28;20048;-62
2022/02/03 13:39:40;;;;;;;15.70;10.80;;;5.70;76.50;;;;;;5042867;28;20036;-61
2022/02/03 13:42:12;;;;;;;18.52;11.18;;;5.70;76.40;;;;;;5042957;28;20058;-61
2022/02/03 13:44:40;;;;;;;18.23;10.98;;;5.60;76.50;;;;;;5036572;28;20040;-62
2022/02/03 13:47:25;;;;;;;17.83;11.68;;;5.60;76.50;;;;;;5035516;28;20033;-61
2022/02/03 13:50:12;;;;;;;16.15;10.98;;;5.60;76.60;;;;;;5041876;28;20025;-61
2022/02/03 13:53:32;;;;;;;14.70;9.73;;;5.60;76.60;;;;;;5041462;28;20028;-61
2022/02/03 14:10:32;;;;;;;14.25;11.38;;;5.50;76.50;;;;;;5038676;28;20663;-61
2022/02/03 14:20:46;;;;;;;11.63;9.75;;;5.20;76.50;;;;;;5049231;28;20044;-60
2022/02/03 14:28:30;;;;;;;10.43;9.43;;;5.00;75.60;;;;;;5051251;28;20097;-60
2022/02/03 14:30:59;;;;;;;11.73;10.45;;;5.00;75.80;;;;;;5043741;28;20346;-57
2022/02/03 14:33:29;;;;;;;12.50;11.20;;;4.90;75.60;;;;;;5041475;28;20063;-60
2022/02/03 14:36:03;;;;;;;12.20;10.88;;;4.80;75.50;;;;;;5046297;28;20037;-59
2022/02/03 14:38:33;;;;;;;12.73;8.40;;;4.80;75.60;;;;;;5040687;28;20547;-59
2022/02/03 14:41:09;;;;;;;12.32;11.02;;;4.70;75.50;;;;;;5034478;28;20055;-59
2022/02/03 14:43:35;;;;;;;12.90;8.45;;;4.60;75.80;;;;;;5045554;28;20040;-62
2022/02/03 14:46:02;;;;;;;13.27;11.73;;;4.60;76.10;;;;;;5031001;28;20087;-60
2022/02/03 14:48:28;;;;;;;14.43;8.95;;;4.50;76.40;;;;;;5028093;28;20031;-60
2022/02/03 14:50:55;;;;;;;13.20;8.40;;;4.50;76.20;;;;;;5047634;28;20583;-61
2022/02/03 14:53:48;;;;;;;12.27;10.18;;;4.40;76.00;;;;;;5048285;28;20029;-61
2022/02/03 14:58:58;;;;;;;13.18;11.75;;;4.30;76.10;;;;;;5048117;28;20044;-61
2022/02/03 15:01:25;;;;;;;14.02;12.60;;;4.40;76.00;;;;;;5042262;28;20060;-60
2022/02/03 15:03:54;;;;;;;13.43;9.30;;;4.30;75.90;;;;;;5046837;28;20028;-60
2022/02/03 15:06:23;;;;;;;12.70;11.40;;;4.20;75.70;;;;;;5045660;28;20036;-60
2022/02/03 15:09:08;;;;;;;14.18;9.73;;;4.20;76.00;;;;;;5053952;28;20036;-61
2022/02/03 15:11:57;;;;;;;15.70;13.00;;;4.20;76.00;;;;;;5051374;28;20133;-61
2022/02/03 15:14:22;;;;;;;14.50;8.65;;;4.20;76.20;;;;;;5042844;28;20024;-60
2022/02/03 15:16:48;;;;;;;12.90;7.75;;;4.10;76.00;;;;;;5049895;28;20036;-60
2022/02/03 15:19:14;;;;;;;15.73;10.80;;;4.10;76.20;;;;;;5048204;28;20424;-61
2022/02/03 15:21:40;;;;;;;13.25;9.00;;;4.10;76.60;;;;;;5039503;28;20035;-61
2022/02/03 15:24:07;;;;;;;14.20;12.32;;;4.00;76.20;;;;;;5043357;28;20078;-60
2022/02/03 15:26:32;;;;;;;14.60;9.35;;;4.10;76.30;;;;;;5041176;28;20044;-61
2022/02/03 15:28:58;;;;;;;14.55;9.35;;;4.00;76.40;;;;;;5034800;28;20845;-60
2022/02/03 15:31:30;;;;;;;13.10;10.70;;;4.00;76.60;;;;;;5047156;28;20027;-60
2022/02/03 15:34:03;;;;;;;;;;;4.10;76.50;;;;;;5045944;28;20033;-60
2022/02/03 15:36:30;;;;;;;12.98;7.57;;;4.00;75.80;;;;;;5048295;28;19944;-61
2022/02/03 15:38:56;;;;;;;13.13;11.75;;;4.00;75.80;;;;;;5050780;28;20035;-63
2022/02/03 15:41:28;;;;;;;14.18;12.02;;;4.00;76.20;;;;;;5041380;28;20151;-61
2022/02/03 15:43:56;;;;;;;12.23;7.90;;;4.00;75.50;;;;;;5051807;28;20040;-61
2022/02/03 15:46:24;;;;;;;12.20;10.65;;;4.00;75.30;;;;;;5049746;28;20428;-61
2022/02/03 15:49:01;;;;;;;14.90;8.45;;;4.00;75.20;;;;;;5050674;28;20052;-61
2022/02/03 16:17:42;;;;;;;11.10;9.07;;;3.90;74.30;;;;;;5049307;28;20488;-60
2022/02/03 16:20:16;;;;;;;12.20;7.13;;;3.90;74.30;;;;;;5048625;28;20498;-59
2022/02/03 16:52:51;;;;;;;12.05;10.45;;;3.80;74.60;;;;;;5061802;28;20649;-60
2022/02/03 16:55:21;;;;;;;12.38;7.60;;;3.80;74.30;;;;;;5071197;28;20470;-59
2022/02/03 16:57:50;;;;;;;10.48;7.00;;;3.80;74.10;;;;;;5059030;28;20598;-60
2022/02/03 17:00:17;;;;;;;9.57;8.38;;;3.80;74.20;;;;;;5060929;28;20720;-60
2022/02/03 17:02:44;;;;;;;11.00;9.63;;;3.80;74.10;;;;;;5051199;28;20037;-59
2022/02/03 17:05:10;;;;;;;11.85;7.15;;;3.80;73.60;;;;;;5063910;28;20518;-60
2022/02/03 17:07:37;;;;;;;10.65;9.55;;;3.70;73.50;;;;;;5057543;28;20033;-60
2022/02/03 17:10:04;;;;;;;11.30;7.18;;;3.70;73.80;;;;;;5063052;28;20021;-60
2022/02/03 17:12:30;;;;;;;11.23;9.02;;;3.70;73.70;;;;;;5068502;28;20017;-59
2022/02/03 17:14:55;;;;;;;10.75;7.18;;;3.60;73.70;;;;;;5067036;28;20033;-60
2022/02/03 17:17:21;;;;;;;13.95;10.35;;;3.60;74.00;;;;;;5065420;28;20102;-60
2022/02/03 17:19:48;;;;;;;10.52;6.80;;;3.60;74.20;;;;;;5060190;28;20097;-60
2022/02/03 17:22:16;;;;;;;12.60;7.38;;;3.60;74.00;;;;;;5078717;28;20473;-60
2022/02/03 17:24:51;;;;;;;11.88;9.55;;;3.50;74.10;;;;;;5071969;28;20029;-59
2022/02/03 17:30:04;;;;;;;9.48;6.80;;;3.60;74.10;;;;;;5071272;28;20143;-59
2022/02/03 18:07:38;;;;;;;9.27;6.10;;;3.00;73.20;;;;;;5075101;28;20129;-60
2022/02/03 18:50:11;;;;;;;9.80;8.63;;;2.70;72.70;;;;;;5066739;28;20017;-60
2022/02/03 18:55:22;;;;;;;8.75;5.22;;;2.70;72.10;;;;;;5072141;28;20423;-60
2022/02/03 18:58:48;;;;;;;8.35;7.40;;;2.70;72.00;;;;;;5051173;28;20029;-59
2022/02/03 19:27:48;;;;;;;8.32;5.88;;;2.60;72.10;;;;;;5081212;28;20031;-60
2022/02/03 20:08:34;;;;;;;11.07;9.52;;;2.40;72.70;;;;;;5000095;28;20121;-60
2022/02/03 20:11:00;;;;;;;12.43;9.95;;;2.40;72.60;;;;;;5081811;28;20031;-59
2022/02/03 20:13:25;;;;;;;12.15;9.93;;;2.40;72.40;;;;;;5076637;28;20020;-60
2022/02/03 20:15:52;;;;;;;10.68;9.57;;;2.40;71.90;;;;;;5075114;28;20557;-59
2022/02/03 20:18:19;;;;;;;11.25;9.65;;;2.40;71.50;;;;;;5082466;28;20039;-60
2022/02/03 20:20:45;;;;;;;12.70;9.65;;;2.40;71.20;;;;;;5075890;28;20021;-60
2022/02/03 20:23:15;;;;;;;11.20;6.45;;;2.40;71.00;;;;;;5072202;28;20155;-60
2022/02/03 20:25:43;;;;;;;9.98;5.75;;;2.40;70.80;;;;;;5075353;28;20032;-59
2022/02/03 20:28:09;;;;;;;9.57;5.70;;;2.30;71.30;;;;;;5071847;28;20563;-60
2022/02/03 20:30:36;;;;;;;9.68;5.32;;;2.20;71.50;;;;;;5070079;28;20459;-60
2022/02/03 20:33:03;;;;;;;9.63;8.48;;;2.20;71.80;;;;;;5070050;28;20070;-59
2022/02/03 20:35:29;;;;;;;10.77;5.82;;;2.20;72.00;;;;;;5074186;28;20051;-60
2022/02/03 20:37:55;;;;;;;9.07;7.88;;;2.20;71.70;;;;;;5075610;28;20047;-60
2022/02/03 20:40:21;;;;;;;8.95;5.65;;;2.20;71.50;;;;;;5076595;28;20031;-60
2022/02/03 20:42:47;;;;;;;11.00;8.65;;;2.20;71.30;;;;;;5073364;28;20029;-60
2022/02/03 20:45:13;;;;;;;9.95;6.50;;;2.20;71.50;;;;;;5078226;28;20028;-60
2022/02/03 20:47:39;;;;;;;9.30;8.18;;;2.20;71.30;;;;;;5077724;28;20024;-60
2022/02/03 20:50:17;;;;;;;8.73;6.03;;;2.20;71.10;;;;;;5088826;28;20058;-59
2022/02/03 20:52:43;;;;;;;11.02;6.07;;;2.20;70.80;;;;;;5082867;28;20029;-60
2022/02/03 20:55:08;;;;;;;8.80;7.88;;;2.10;70.60;;;;;;5075510;28;20400;-59
2022/02/03 20:57:34;;;;;;;13.10;6.35;;;2.00;70.30;;;;;;5075050;28;20097;-60
2022/02/03 21:05:12;;;;;;;10.35;7.50;;;1.90;70.10;;;;;;5074539;28;20041;-60
2022/02/03 21:07:38;;;;;;;8.18;5.60;;;1.90;69.70;;;;;;5073463;28;20129;-59
2022/02/03 21:10:07;;;;;;;7.97;5.55;;;1.90;69.60;;;;;;5073718;28;20067;-59
2022/02/03 21:12:33;;;;;;;7.95;6.75;;;1.80;69.90;;;;;;5067829;28;20024;-60
2022/02/03 21:15:00;;;;;;;10.07;6.00;;;1.80;69.60;;;;;;5064185;28;20025;-60
2022/02/03 21:17:30;;;;;;;8.85;5.70;;;1.80;69.50;;;;;;5072610;28;20024;-60
2022/02/03 21:20:05;;;;;;;7.20;5.30;;;1.80;69.70;;;;;;5075185;28;20074;-60
2022/02/03 21:22:31;;;;;;;8.38;7.20;;;1.70;69.90;;;;;;5075176;28;20032;-60
2022/02/03 21:25:03;;;;;;;8.70;7.32;;;1.80;69.60;;;;;;5074779;28;20108;-59
2022/02/03 21:27:32;;;;;;;9.95;7.80;;;1.80;69.10;;;;;;5074843;28;20040;-60
2022/02/03 21:30:00;;;;;;;9.13;7.45;;;1.90;69.10;;;;;;5072509;28;20016;-59
2022/02/03 21:32:26;;;;;;;9.27;6.25;;;1.90;68.90;;;;;;5083539;28;20016;-60
2022/02/03 21:34:53;;;;;;;8.70;7.80;;;1.80;68.80;;;;;;5073859;28;20078;-60
2022/02/03 21:37:18;;;;;;;10.25;5.88;;;1.90;69.20;;;;;;5076731;28;20028;-60
2022/02/03 21:39:44;;;;;;;9.57;7.35;;;1.80;69.10;;;;;;5076918;28;20032;-60
2022/02/03 21:42:10;;;;;;;8.57;7.07;;;1.90;69.50;;;;;;5087931;28;20101;-60
2022/02/03 21:44:35;;;;;;;8.20;7.35;;;1.90;68.90;;;;;;5074823;28;20028;-60
2022/02/03 21:47:01;;;;;;;9.32;7.85;;;2.00;68.40;;;;;;5064290;28;20049;-60
2022/02/03 21:49:27;;;;;;;8.00;7.20;;;2.00;68.90;;;;;;5075000;28;20103;-60
2022/02/03 21:51:55;;;;;;;9.80;8.13;;;2.00;68.00;;;;;;5074388;28;20013;-60
2022/02/03 21:54:21;;;;;;;8.38;7.50;;;2.00;67.70;;;;;;5069722;28;20074;-60
2022/02/03 21:56:48;;;;;;;9.10;8.18;;;2.00;67.70;;;;;;5073947;28;20036;-60
2022/02/03 21:59:15;;;;;;;9.05;7.90;;;2.00;67.50;;;;;;5069741;28;20090;-60
2022/02/03 22:01:42;;;;;;;9.55;8.50;;;2.00;67.10;;;;;;5079496;28;20020;-60
2022/02/03 22:04:08;;;;;;;8.20;5.88;;;2.00;66.90;;;;;;5072644;28;20093;-60
2022/02/03 22:06:34;;;;;;;8.38;7.25;;;1.90;67.10;;;;;;5074265;28;20410;-60
2022/02/03 22:09:00;;;;;;;9.48;7.80;;;1.90;67.20;;;;;;5073461;28;20025;-60
2022/02/03 22:11:26;;;;;;;9.07;7.55;;;1.90;67.00;;;;;;5076759;28;20491;-60
2022/02/03 22:13:51;;;;;;;8.63;7.40;;;1.90;66.90;;;;;;5066061;28;20063;-59
2022/02/03 22:16:24;;;;;;;8.50;7.60;;;1.90;67.10;;;;;;5075885;28;20383;-60
2022/02/03 22:18:50;;;;;;;8.13;5.38;;;1.80;67.00;;;;;;5072588;28;20070;-58
2022/02/03 22:21:27;;;;;;;7.97;7.18;;;1.80;67.10;;;;;;5071835;28;20036;-60
2022/02/03 22:38:36;;;;;;;7.15;6.28;;;1.50;67.50;;;;;;5069314;28;20438;-60
2022/02/03 22:45:45;;;;;;;7.95;6.25;;;1.40;67.80;;;;;;5082190;28;20407;-60
2022/02/03 22:48:28;;;;;;;8.35;6.63;;;1.40;67.80;;;;;;5068107;28;20024;-60
2022/02/03 22:50:56;;;;;;;7.72;6.90;;;1.50;68.40;;;;;;5078086;28;20017;-60
2022/02/03 22:53:21;;;;;;;7.10;4.47;;;1.50;67.80;;;;;;5073530;28;20410;-60
2022/02/03 22:55:48;;;;;;;7.28;6.50;;;1.40;68.00;;;;;;5068432;28;20031;-60
2022/02/03 23:01:01;;;;;;;7.93;7.03;;;1.50;67.80;;;;;;5080472;28;20040;-60
2022/02/03 23:03:28;;;;;;;8.13;6.80;;;1.50;67.80;;;;;;5075993;28;20455;-60
2022/02/03 23:05:54;;;;;;;8.40;7.15;;;1.50;67.60;;;;;;5065782;28;20021;-60
2022/02/03 23:08:28;;;;;;;9.18;7.10;;;1.50;67.50;;;;;;5079885;28;20056;-60
2022/02/03 23:19:02;;;;;;;8.57;6.90;;;1.50;67.30;;;;;;5077137;28;20035;-60
2022/02/03 23:24:07;;;;;;;7.78;6.93;;;1.40;67.30;;;;;;5074698;28;20368;-59
2022/02/03 23:26:33;;;;;;;7.82;6.72;;;1.40;67.30;;;;;;5067731;28;20094;-60
2022/02/03 23:29:05;;;;;;;6.68;4.80;;;1.40;67.30;;;;;;5075963;28;20017;-60
2022/02/03 23:31:37;;;;;;;8.15;6.43;;;1.30;67.30;;;;;;5083439;28;20452;-60
2022/02/03 23:34:03;;;;;;;7.38;6.57;;;1.30;67.40;;;;;;5074843;28;20040;-59
2022/02/03 23:36:28;;;;;;;6.05;4.82;;;1.30;67.30;;;;;;5076903;28;20040;-60
2022/02/03 23:39:07;;;;;;;7.43;6.60;;;1.30;67.90;;;;;;5076209;28;20495;-60
2022/02/03 23:44:12;;;;;;;8.80;6.68;;;1.30;67.30;;;;;;5070337;28;20028;-60
